メインページ
METAR-TAF:

METAR-TAF

空港 :

ウェリントン, ニュージーランド

ウェリントン国際空港

緯度: 41-20S, 経度: 174-48E, 海抜: 12m

現時点の気象観測

当レポートは36分前の15:30(UTC)に作成
の風 7kt
気温 15°C
湿度 82%
気圧 1013 hPa
視程10km以上

METAR: NZWN 231530Z AUTO 01007KT 9999 NCD 15/12 Q1013 NOSIG

時間: 05:06 (16:06 UTC)

予報

当レポートは4時間42分前の11:24(UTC)に作成
予報は23日の 12時(UTC)から 24日の 12時(UTC)まで有効
北/北東の風 5kt
視程10km以上
高度3000ftの雲は散在している
23日の 22時(UTC)から 24日の 00時(UTC)まで徐々に
の風 15kt

TAF: NZWN 231124Z 2312/2412 02005KT 9999 SCT030 BECMG 2322/2400 36015KT

4,000以上の空港の気象観測と天気予報(METAR報とTAF報)

利用可能な観測所は地図上に黄色い丸と赤い丸で示す。

丸の上にカーソルを重ねると観測所名を参照できる。

次にクリックすると気象観測と天気予報を参照できる。

マップの切り替え:黒色「×」印の緑ボタンをクリックして拡大、「-」印の緑ボタンをクリックして縮小、緑色の三角印をクリックして隣りの地図に切り替え


METAR-TAF: